Map

Track Data

SID SEASON NUMBER BASIN SUBBASIN NAME ISO_TIME NATURE LAT LON WMO_WIND WMO_PRES WMO_AGENCY TRACK_TYPE DIST2LAND LANDFALL IFLAG USA_AGENCY USA_ATCF_ID USA_LAT USA_LON USA_RECORD USA_STATUS USA_WIND USA_PRES USA_SSHS USA_R34_NE USA_R34_SE USA_R34_SW USA_R34_NW USA_R50_NE USA_R50_SE USA_R50_SW USA_R50_NW USA_R64_NE USA_R64_SE USA_R64_SW USA_R64_NW USA_POCI USA_ROCI USA_RMW USA_EYE TOKYO_LAT TOKYO_LON TOKYO_GRADE TOKYO_WIND TOKYO_PRES TOKYO_R50_DIR TOKYO_R50_LONG TOKYO_R50_SHORT TOKYO_R30_DIR TOKYO_R30_LONG TOKYO_R30_SHORT TOKYO_LAND CMA_LAT CMA_LON CMA_CAT CMA_WIND CMA_PRES HKO_LAT HKO_LON HKO_CAT HKO_WIND HKO_PRES NEWDELHI_LAT NEWDELHI_LON NEWDELHI_GRADE NEWDELHI_WIND NEWDELHI_PRES NEWDELHI_CI NEWDELHI_DP NEWDELHI_POCI REUNION_LAT REUNION_LON REUNION_TYPE REUNION_WIND REUNION_PRES REUNION_TNUM REUNION_CI REUNION_RMW REUNION_R34_NE REUNION_R34_SE REUNION_R34_SW REUNION_R34_NW REUNION_R50_NE REUNION_R50_SE REUNION_R50_SW REUNION_R50_NW REUNION_R64_NE REUNION_R64_SE REUNION_R64_SW REUNION_R64_NW BOM_LAT BOM_LON BOM_TYPE BOM_WIND BOM_PRES BOM_TNUM BOM_CI BOM_RMW BOM_R34_NE BOM_R34_SE BOM_R34_SW BOM_R34_NW BOM_R50_NE BOM_R50_SE BOM_R50_SW BOM_R50_NW BOM_R64_NE BOM_R64_SE BOM_R64_SW BOM_R64_NW BOM_ROCI BOM_POCI BOM_EYE BOM_POS_METHOD BOM_PRES_METHOD NADI_LAT NADI_LON NADI_CAT NADI_WIND NADI_PRES WELLINGTON_LAT WELLINGTON_LON WELLINGTON_WIND WELLINGTON_PRES DS824_LAT DS824_LON DS824_STAGE DS824_WIND DS824_PRES TD9636_LAT TD9636_LON TD9636_STAGE TD9636_WIND TD9636_PRES TD9635_LAT TD9635_LON TD9635_WIND TD9635_PRES TD9635_ROCI NEUMANN_LAT NEUMANN_LON NEUMANN_CLASS NEUMANN_WIND NEUMANN_PRES MLC_LAT MLC_LON MLC_CLASS MLC_WIND MLC_PRES USA_GUST BOM_GUST BOM_GUST_PER REUNION_GUST REUNION_GUST_PER USA_SEAHGT USA_SEARAD_NE USA_SEARAD_SE USA_SEARAD_SW USA_SEARAD_NW STORM_SPEED STORM_DIR
1880214N20088 1880 9 NI BB NOT_NAMED 1880-08-01 00:00:00 TS 20.1000 88.3000 main 151 151 _________O____ -1 20.1000 88.3000 TC 30 0 0
1880214N20088 1880 9 NI BB NOT_NAMED 1880-08-01 03:00:00 TS 20.1000 88.3000 main 151 151 _________PO___ -1 20.1000 88.3000 TC 30 20.1000 88.3000 1 0 0
1880214N20088 1880 9 NI BB NOT_NAMED 1880-08-01 06:00:00 TS 20.1019 88.2963 main 151 151 _________OP___ -1 20.1000 88.3000 TC 30 20.1047 88.2906 1 0 0
1880214N20088 1880 9 NI BB NOT_NAMED 1880-08-01 09:00:00 TS 20.1032 88.2936 main 151 151 _________PP___ -1 20.1000 88.3000 TC 30 20.1075 88.2850 1 0 0
1880214N20088 1880 9 NI BB NOT_NAMED 1880-08-01 12:00:00 TS 20.1033 88.2935 main 151 151 _________OP___ -1 20.1000 88.3000 TC 30 20.1066 88.2869 1 0 0
1880214N20088 1880 9 NI BB NOT_NAMED 1880-08-01 15:00:00 TS 20.1000 88.3000 main 151 151 _________PO___ -1 20.1000 88.3000 TC 30 20.1000 88.3000 1 0 0
1880214N20088 1880 9 NI BB NOT_NAMED 1880-08-01 18:00:00 TS 20.0939 88.3122 main 151 151 _________OP___ -1 20.1000 88.3000 TC 30 20.0878 88.3243 1 0 112
1880214N20088 1880 9 NI BB NOT_NAMED 1880-08-01 21:00:00 TS 20.0850 88.3300 main 151 151 _________PP___ -1 20.0925 88.3150 TC 30 20.0774 88.3449 1 0 0
1880214N20088 1880 9 NI BB NOT_NAMED 1880-08-02 00:00:00 TS 20.0892 88.3215 main 151 151 _________OP___ -1 20.1000 88.3000 TC 30 20.0784 88.3430 1 1 298
1880214N20088 1880 9 NI BB NOT_NAMED 1880-08-02 03:00:00 TS 20.1175 88.2650 main 151 136 _________PO___ -1 20.1350 88.2300 TC 30 20.1000 88.3000 1 2 297
1880214N20088 1880 9 NI BB NOT_NAMED 1880-08-02 06:00:00 TS 20.1768 88.1425 main 127 113 _________OP___ -1 20.2000 88.1000 TC 30 20.1535 88.1851 1 3 297
1880214N20088 1880 9 NI BB NOT_NAMED 1880-08-02 09:00:00 TS 20.2639 87.9651 main 113 89 _________PP___ -1 20.3001 87.9001 TC 30 20.2277 88.0302 1 4 298
1880214N20088 1880 9 NI BB NOT_NAMED 1880-08-02 12:00:00 TS 20.3565 87.7800 main 89 70 _________OP___ -1 20.4000 87.7000 TC 30 20.3129 87.8601 1 3 298
1880214N20088 1880 9 NI BB NOT_NAMED 1880-08-02 15:00:00 TS 20.4250 87.6425 main 70 56 _________PO___ -1 20.4500 87.5849 TC 30 20.4000 87.7000 1 3 301
1880214N20088 1880 9 NI BB NOT_NAMED 1880-08-02 18:00:00 TS 20.4875 87.5448 main 56 53 _________OP___ -1 20.5000 87.5000 TC 30 20.4749 87.5896 1 2 309
1880214N20088 1880 9 NI BB NOT_NAMED 1880-08-02 21:00:00 TS 20.5749 87.4462 main 43 41 _________PP___ -1 20.6000 87.4000 TC 30 20.5499 87.4924 1 3 314
1880214N20088 1880 9 NI BB NOT_NAMED 1880-08-03 00:00:00 TS 20.6625 87.3495 main 31 31 _________OP___ -1 20.7000 87.3000 TC 30 20.6249 87.3990 1 2 310
1880214N20088 1880 9 NI BB NOT_NAMED 1880-08-03 03:00:00 TS 20.7250 87.2537 main 31 10 _________PO___ -1 20.7500 87.2075 TC 30 20.7000 87.3000 1 2 302
1880214N20088 1880 9 NI BB NOT_NAMED 1880-08-03 06:00:00 TS 20.7875 87.1370 main 10 0 _________OP___ -1 20.8000 87.1000 TC 30 20.7750 87.1741 1 3 302
1880214N20088 1880 9 NI BB NOT_NAMED 1880-08-03 09:00:00 TS 20.8750 86.9963 main 10 0 _________PP___ -1 20.9000 86.9500 TC 30 20.8500 87.0425 1 3 304
1880214N20088 1880 9 NI BB NOT_NAMED 1880-08-03 12:00:00 TS 20.9625 86.8574 main 10 0 _________OP___ -1 21.0000 86.8000 TC 30 20.9250 86.9147 1 3 302
1880214N20088 1880 9 NI BB NOT_NAMED 1880-08-03 15:00:00 TS 21.0250 86.7425 main 0 0 _________PO___ -1 21.0500 86.6850 TC 30 21.0000 86.8000 1 2 304
1880214N20088 1880 9 NI BB NOT_NAMED 1880-08-03 18:00:00 TS 21.0854 86.6634 main 0 0 _________OP___ -1 21.1000 86.6000 TC 30 21.0708 86.7267 1 2 319
1880214N20088 1880 9 NI BB NOT_NAMED 1880-08-03 21:00:00 TS 21.1674 86.6111 main 0 0 _________PP___ -1 21.1925 86.5575 TC 30 21.1423 86.6648 1 2 329
1880214N20088 1880 9 NI BB NOT_NAMED 1880-08-04 00:00:00 TS 21.2588 86.5477 main 0 0 _________OP___ -1 21.3000 86.5000 TC 30 21.2177 86.5955 1 2 318
1880214N20088 1880 9 NI BB NOT_NAMED 1880-08-04 03:00:00 TS 21.3500 86.4362 main 0 0 _________PO___ -1 21.4000 86.3725 TC 30 21.3000 86.5000 1 3 306
1880214N20088 1880 9 NI BB NOT_NAMED 1880-08-04 06:00:00 TS 21.4444 86.2749 main 0 0 _________OP___ -1 21.5000 86.2000 TC 30 21.3888 86.3497 1 4 300
1880214N20088 1880 9 NI BB NOT_NAMED 1880-08-04 09:00:00 TS 21.5388 86.0863 main 0 0 _________PP___ -1 21.5925 86.0000 TC 30 21.4851 86.1725 1 4 299
1880214N20088 1880 9 NI BB NOT_NAMED 1880-08-04 12:00:00 TS 21.6444 85.8920 main 0 0 _________OP___ -1 21.7000 85.8000 TC 30 21.5888 85.9841 1 4 305
1880214N20088 1880 9 NI BB NOT_NAMED 1880-08-04 15:00:00 TS 21.7750 85.7213 main 0 0 _________PO___ -1 21.8500 85.6425 TC 30 21.7000 85.8000 1 4 316
1880214N20088 1880 9 NI BB NOT_NAMED 1880-08-04 18:00:00 TS 21.9062 85.6197 main 0 0 _________OP___ -1 22.0000 85.5000 TC 30 21.8123 85.7394 1 3 327
1880214N20088 1880 9 NI BB NOT_NAMED 1880-08-04 21:00:00 TS 22.0122 85.5553 main 0 0 _________PP___ -1 22.0919 85.4396 TC 30 21.9325 85.6711 1 3 313
1880214N20088 1880 9 NI BB NOT_NAMED 1880-08-05 00:00:00 TS 22.1308 85.3586 main 0 0 _________OP___ -1 22.2000 85.2000 TC 30 22.0616 85.5173 1 7 294
1880214N20088 1880 9 NI BB NOT_NAMED 1880-08-05 03:00:00 TS 22.3003 84.8702 main 0 0 _________PO___ -1 22.4005 84.5405 TC 30 22.2000 85.2000 1 12 287
1880214N20088 1880 9 NI BB NOT_NAMED 1880-08-05 06:00:00 TS 22.4741 84.1655 main 0 0 _________OP___ -1 22.6000 83.7000 TC 30 22.3482 84.6310 1 14 283
1880214N20088 1880 9 NI BB NOT_NAMED 1880-08-05 09:00:00 TS 22.6082 83.4263 main 0 0 _________PP___ -1 22.7145 82.9571 TC 30 22.5018 83.8954 1 14 280
1880214N20088 1880 9 NI BB NOT_NAMED 1880-08-05 12:00:00 TS 22.7271 82.6310 main 0 0 _________OP___ -1 22.8000 82.2000 TC 30 22.6542 83.0620 1 15 279
1880214N20088 1880 9 NI BB NOT_NAMED 1880-08-05 15:00:00 TS 22.8461 81.8036 main 0 0 _________PO___ -1 22.8922 81.4073 TC 30 22.8000 82.2000 1 16 279
1880214N20088 1880 9 NI BB NOT_NAMED 1880-08-05 18:00:00 TS 22.9732 80.9527 main 0 0 _________OP___ -1 23.0000 80.6000 TC 30 22.9464 81.3054 1 16 280
1880214N20088 1880 9 NI BB NOT_NAMED 1880-08-05 21:00:00 TS 23.1206 80.0582 main 0 0 _________PP___ -1 23.1581 79.7029 TC 30 23.0831 80.4135 1 15 280
1880214N20088 1880 9 NI BB NOT_NAMED 1880-08-06 00:00:00 TS 23.2514 79.3074 main 0 0 _________OP___ -1 23.3000 79.0000 TC 30 23.2028 79.6147 1 11 281
1880214N20088 1880 9 NI BB NOT_NAMED 1880-08-06 03:00:00 TS 23.3321 78.8724 main 0 0 _________PO___ -1 23.3643 78.7447 TC 30 23.3000 79.0000 1 6 283
1880214N20088 1880 9 NI BB NOT_NAMED 1880-08-06 06:00:00 TS 23.3825 78.6901 main 0 0 _________OP___ -1 23.4000 78.7000 TC 30 23.3649 78.6801 1 3 290
1880214N20088 1880 9 NI BB NOT_NAMED 1880-08-06 09:00:00 TS 23.4310 78.5733 main 0 0 _________PP___ -1 23.4500 78.6000 TC 30 23.4121 78.5466 1 2 299
1880214N20088 1880 9 NI BB NOT_NAMED 1880-08-06 12:00:00 TS 23.4767 78.5074 main 0 0 _________OP___ -1 23.5000 78.5000 TC 30 23.4534 78.5147 1 2 304
1880214N20088 1880 9 NI BB NOT_NAMED 1880-08-06 15:00:00 TS 23.5213 78.4250 main 0 0 _________PO___ -1 23.5425 78.3500 TC 30 23.5000 78.5000 1 2 297
1880214N20088 1880 9 NI BB NOT_NAMED 1880-08-06 18:00:00 TS 23.5715 78.3055 main 0 0 _________OP___ -1 23.6000 78.2000 TC 30 23.5431 78.4110 1 2 302
1880214N20088 1880 9 NI BB NOT_NAMED 1880-08-06 21:00:00 TS 23.6371 78.2232 main 0 0 _________PP___ -1 23.6773 78.1298 TC 30 23.5969 78.3166 1 3 311
1880214N20088 1880 9 NI BB NOT_NAMED 1880-08-07 00:00:00 TS 23.7387 78.0945 main 0 0 _________OP___ -1 23.8000 78.0000 TC 30 23.6773 78.1889 1 4 306
1880214N20088 1880 9 NI AS NOT_NAMED 1880-08-07 03:00:00 TS 23.8888 77.8438 main 0 0 _________PO___ -1 23.9776 77.6876 TC 30 23.8000 78.0000 1 6 303
1880214N20088 1880 9 NI AS NOT_NAMED 1880-08-07 06:00:00 TS 24.0871 77.5055 main 0 0 _________OP___ -1 24.2000 77.3000 TC 30 23.9741 77.7109 1 8 304
1880214N20088 1880 9 NI AS NOT_NAMED 1880-08-07 09:00:00 TS 24.3165 77.1552 main 0 0 _________PP___ -1 24.4424 76.9499 TC 30 24.1905 77.3604 1 8 306
1880214N20088 1880 9 NI AS NOT_NAMED 1880-08-07 12:00:00 TS 24.5683 76.7898 main 0 0 _________OP___ -1 24.7000 76.6000 TC 30 24.4366 76.9796 1 8 307
1880214N20088 1880 9 NI AS NOT_NAMED 1880-08-07 15:00:00 TS 24.8212 76.4212 main 0 0 _________PO___ -1 24.9425 76.2423 TC 30 24.7000 76.6000 1 8 308
1880214N20088 1880 9 NI AS NOT_NAMED 1880-08-07 18:00:00 TS 25.0823 76.0738 main 0 0 _________OP___ -1 25.2000 75.9000 TC 30 24.9647 76.2476 1 8 312
1880214N20088 1880 9 NI AS NOT_NAMED 1880-08-07 21:00:00 TS 25.3713 75.7414 main 0 0 _________PP___ -1 25.5000 75.5775 TC 30 25.2425 75.9052 1 8 315
1880214N20088 1880 9 NI AS NOT_NAMED 1880-08-08 00:00:00 TS 25.6621 75.4426 main 0 0 _________OP___ -1 25.8000 75.3000 TC 30 25.5241 75.5851 1 7 318
1880214N20088 1880 9 NI AS NOT_NAMED 1880-08-08 03:00:00 TS 25.9287 75.1924 main 0 0 _________PO___ -1 26.0574 75.0848 TC 30 25.8000 75.3000 1 7 321
1880214N20088 1880 9 NI AS NOT_NAMED 1880-08-08 06:00:00 TS 26.1764 74.9777 main 0 0 _________OP___ -1 26.3000 74.9000 TC 30 26.0528 75.0553 1 6 323
1880214N20088 1880 9 NI AS NOT_NAMED 1880-08-08 09:00:00 TS 26.4248 74.7696 main 0 0 _________PP___ -1 26.5500 74.6925 TC 30 26.2996 74.8467 1 6 325
1880214N20088 1880 9 NI AS NOT_NAMED 1880-08-08 12:00:00 TS 26.6733 74.5824 main 0 0 _________OP___ -1 26.8000 74.5000 TC 30 26.5466 74.6648 1 6 328
1880214N20088 1880 9 NI AS NOT_NAMED 1880-08-08 15:00:00 TS 26.9212 74.4212 main 0 0 _________PO___ -1 27.0425 74.3424 TC 30 26.8000 74.5000 1 6 331
1880214N20088 1880 9 NI AS NOT_NAMED 1880-08-08 18:00:00 TS 27.1653 74.2822 main 0 0 _________OP___ -1 27.3000 74.2000 TC 30 27.0642 74.3439 1 6 334
1880214N20088 1880 9 NI AS NOT_NAMED 1880-08-08 21:00:00 TS 27.4387 74.1371 main 0 0 _________PP___ -1 27.5900 74.0527 TC 30 27.3377 74.1933 1 6 335
1880214N20088 1880 9 NI AS NOT_NAMED 1880-08-09 00:00:00 TS 27.7116 73.9973 main 0 0 _________OP___ -1 27.9000 73.9000 TC 30 27.6174 74.0460 1 5 336
1880214N20088 1880 9 NI AS NOT_NAMED 1880-08-09 03:00:00 NR 27.9000 73.9000 main 0 __________O___ -1 TC 27.9000 73.9000 1 4 334

About IBTrACS Database

This database is a web-friendly format of International Best Track Archive for Climate Stewardship (IBTrACS), a global best track data archive curated by NOAA dating back to 1842.

Updated: 2021-12-03